sensor_id;sensor_type;location;lat;lon;timestamp;temperature;humidity
48998;DHT22;34807;51.456;7.244;2023-06-14T00:00:09;21.60;58.70
48998;DHT22;34807;51.456;7.244;2023-06-14T00:02:35;21.60;58.80
48998;DHT22;34807;51.456;7.244;2023-06-14T00:05:01;21.60;58.90
48998;DHT22;34807;51.456;7.244;2023-06-14T00:07:33;21.50;58.90
48998;DHT22;34807;51.456;7.244;2023-06-14T00:09:59;21.50;59.00
48998;DHT22;34807;51.456;7.244;2023-06-14T00:12:25;21.50;59.10
48998;DHT22;34807;51.456;7.244;2023-06-14T00:14:50;21.40;59.00
48998;DHT22;34807;51.456;7.244;2023-06-14T00:17:15;21.40;59.10
48998;DHT22;34807;51.456;7.244;2023-06-14T00:19:41;21.40;59.80
48998;DHT22;34807;51.456;7.244;2023-06-14T00:22:07;21.30;59.20
48998;DHT22;34807;51.456;7.244;2023-06-14T00:24:32;21.40;59.30
48998;DHT22;34807;51.456;7.244;2023-06-14T00:26:58;21.30;59.40
48998;DHT22;34807;51.456;7.244;2023-06-14T00:29:23;21.30;59.40
48998;DHT22;34807;51.456;7.244;2023-06-14T00:31:49;21.20;59.40
48998;DHT22;34807;51.456;7.244;2023-06-14T00:34:14;21.20;60.40
48998;DHT22;34807;51.456;7.244;2023-06-14T00:36:40;21.10;59.50
48998;DHT22;34807;51.456;7.244;2023-06-14T00:39:05;21.10;59.60
48998;DHT22;34807;51.456;7.244;2023-06-14T00:41:31;21.10;59.50
48998;DHT22;34807;51.456;7.244;2023-06-14T00:43:56;21.10;59.50
48998;DHT22;34807;51.456;7.244;2023-06-14T00:46:22;21.00;59.50
48998;DHT22;34807;51.456;7.244;2023-06-14T00:48:48;21.00;59.70
48998;DHT22;34807;51.456;7.244;2023-06-14T00:51:14;21.00;59.80
48998;DHT22;34807;51.456;7.244;2023-06-14T00:53:39;20.90;59.90
48998;DHT22;34807;51.456;7.244;2023-06-14T00:56:06;20.90;59.70
48998;DHT22;34807;51.456;7.244;2023-06-14T00:58:32;20.80;59.80
48998;DHT22;34807;51.456;7.244;2023-06-14T01:00:57;20.80;59.80
48998;DHT22;34807;51.456;7.244;2023-06-14T01:03:23;20.80;59.80
48998;DHT22;34807;51.456;7.244;2023-06-14T01:05:53;20.80;59.80
48998;DHT22;34807;51.456;7.244;2023-06-14T01:13:34;20.70;60.10
48998;DHT22;34807;51.456;7.244;2023-06-14T01:16:00;20.70;60.10
48998;DHT22;34807;51.456;7.244;2023-06-14T01:18:27;20.70;60.30
48998;DHT22;34807;51.456;7.244;2023-06-14T01:20:54;20.60;60.10
48998;DHT22;34807;51.456;7.244;2023-06-14T01:23:20;20.60;60.10
48998;DHT22;34807;51.456;7.244;2023-06-14T01:25:47;20.60;60.10
48998;DHT22;34807;51.456;7.244;2023-06-14T01:28:13;20.60;60.30
48998;DHT22;34807;51.456;7.244;2023-06-14T01:30:42;20.50;60.10
48998;DHT22;34807;51.456;7.244;2023-06-14T01:33:11;20.50;60.40
48998;DHT22;34807;51.456;7.244;2023-06-14T01:35:37;20.50;60.40
48998;DHT22;34807;51.456;7.244;2023-06-14T01:38:03;20.40;60.50
48998;DHT22;34807;51.456;7.244;2023-06-14T01:40:29;20.40;60.20
48998;DHT22;34807;51.456;7.244;2023-06-14T01:42:55;20.40;60.50
48998;DHT22;34807;51.456;7.244;2023-06-14T01:45:21;20.40;60.50
48998;DHT22;34807;51.456;7.244;2023-06-14T01:47:47;20.30;60.50
48998;DHT22;34807;51.456;7.244;2023-06-14T01:50:13;20.30;60.80
48998;DHT22;34807;51.456;7.244;2023-06-14T01:52:38;20.30;60.90
48998;DHT22;34807;51.456;7.244;2023-06-14T01:55:04;20.20;60.40
48998;DHT22;34807;51.456;7.244;2023-06-14T01:57:30;20.20;60.50
48998;DHT22;34807;51.456;7.244;2023-06-14T01:59:56;20.20;60.90
48998;DHT22;34807;51.456;7.244;2023-06-14T02:02:21;20.20;60.70
48998;DHT22;34807;51.456;7.244;2023-06-14T02:04:47;20.20;60.90
48998;DHT22;34807;51.456;7.244;2023-06-14T02:07:13;20.20;60.90
48998;DHT22;34807;51.456;7.244;2023-06-14T02:09:38;20.10;60.90
48998;DHT22;34807;51.456;7.244;2023-06-14T02:12:04;20.10;61.20
48998;DHT22;34807;51.456;7.244;2023-06-14T02:14:30;20.10;61.10
48998;DHT22;34807;51.456;7.244;2023-06-14T02:16:55;20.00;61.20
48998;DHT22;34807;51.456;7.244;2023-06-14T02:19:21;20.00;61.00
48998;DHT22;34807;51.456;7.244;2023-06-14T02:21:46;20.00;61.20
48998;DHT22;34807;51.456;7.244;2023-06-14T02:24:12;20.00;61.20
48998;DHT22;34807;51.456;7.244;2023-06-14T02:26:38;19.90;61.20
48998;DHT22;34807;51.456;7.244;2023-06-14T02:29:04;19.90;60.80
48998;DHT22;34807;51.456;7.244;2023-06-14T02:31:31;19.90;60.90
48998;DHT22;34807;51.456;7.244;2023-06-14T02:33:56;19.90;61.40
48998;DHT22;34807;51.456;7.244;2023-06-14T02:36:22;19.80;61.60
48998;DHT22;34807;51.456;7.244;2023-06-14T02:38:47;19.80;61.30
48998;DHT22;34807;51.456;7.244;2023-06-14T02:41:13;19.80;61.10
48998;DHT22;34807;51.456;7.244;2023-06-14T02:43:38;19.80;61.50
48998;DHT22;34807;51.456;7.244;2023-06-14T02:46:04;19.80;61.60
48998;DHT22;34807;51.456;7.244;2023-06-14T02:48:30;19.70;61.60
48998;DHT22;34807;51.456;7.244;2023-06-14T02:50:55;19.70;61.50
48998;DHT22;34807;51.456;7.244;2023-06-14T02:53:22;19.70;61.70
48998;DHT22;34807;51.456;7.244;2023-06-14T02:55:47;19.70;61.60
48998;DHT22;34807;51.456;7.244;2023-06-14T02:58:13;19.60;61.60
48998;DHT22;34807;51.456;7.244;2023-06-14T03:00:39;19.60;61.50
48998;DHT22;34807;51.456;7.244;2023-06-14T03:03:06;19.60;61.70
48998;DHT22;34807;51.456;7.244;2023-06-14T03:05:41;19.50;61.80
48998;DHT22;34807;51.456;7.244;2023-06-14T03:08:11;19.60;62.00
48998;DHT22;34807;51.456;7.244;2023-06-14T03:10:42;19.50;61.90
48998;DHT22;34807;51.456;7.244;2023-06-14T03:13:08;19.50;61.90
48998;DHT22;34807;51.456;7.244;2023-06-14T03:15:34;19.50;61.90
48998;DHT22;34807;51.456;7.244;2023-06-14T03:18:00;19.40;62.00
48998;DHT22;34807;51.456;7.244;2023-06-14T03:20:26;19.50;62.10
48998;DHT22;34807;51.456;7.244;2023-06-14T03:22:54;19.40;62.00
48998;DHT22;34807;51.456;7.244;2023-06-14T03:25:19;19.40;62.10
48998;DHT22;34807;51.456;7.244;2023-06-14T03:27:47;19.40;62.10
48998;DHT22;34807;51.456;7.244;2023-06-14T03:30:12;19.40;62.20
48998;DHT22;34807;51.456;7.244;2023-06-14T03:32:38;19.30;62.10
48998;DHT22;34807;51.456;7.244;2023-06-14T03:35:04;19.30;62.20
48998;DHT22;34807;51.456;7.244;2023-06-14T03:37:29;19.30;62.30
48998;DHT22;34807;51.456;7.244;2023-06-14T03:39:55;19.30;62.40
48998;DHT22;34807;51.456;7.244;2023-06-14T03:42:20;19.30;62.30
48998;DHT22;34807;51.456;7.244;2023-06-14T03:44:46;19.20;62.30
48998;DHT22;34807;51.456;7.244;2023-06-14T03:47:11;19.20;62.50
48998;DHT22;34807;51.456;7.244;2023-06-14T03:49:37;19.20;62.50
48998;DHT22;34807;51.456;7.244;2023-06-14T03:52:03;19.20;62.60
48998;DHT22;34807;51.456;7.244;2023-06-14T03:54:29;19.10;62.50
48998;DHT22;34807;51.456;7.244;2023-06-14T03:56:54;19.20;62.40
48998;DHT22;34807;51.456;7.244;2023-06-14T03:59:22;19.20;62.50
48998;DHT22;34807;51.456;7.244;2023-06-14T04:01:48;19.10;62.30
48998;DHT22;34807;51.456;7.244;2023-06-14T04:04:14;19.10;63.30
48998;DHT22;34807;51.456;7.244;2023-06-14T04:06:41;19.10;62.70
48998;DHT22;34807;51.456;7.244;2023-06-14T04:09:08;19.10;62.50
48998;DHT22;34807;51.456;7.244;2023-06-14T04:11:33;19.10;62.80
48998;DHT22;34807;51.456;7.244;2023-06-14T04:13:59;19.10;62.90
48998;DHT22;34807;51.456;7.244;2023-06-14T04:16:24;19.10;62.70
48998;DHT22;34807;51.456;7.244;2023-06-14T04:18:50;19.10;62.70
48998;DHT22;34807;51.456;7.244;2023-06-14T04:21:17;19.00;62.70
48998;DHT22;34807;51.456;7.244;2023-06-14T04:23:43;19.00;62.60
48998;DHT22;34807;51.456;7.244;2023-06-14T04:26:09;19.00;62.90
48998;DHT22;34807;51.456;7.244;2023-06-14T04:28:35;19.00;62.90
48998;DHT22;34807;51.456;7.244;2023-06-14T04:31:08;19.00;62.90
48998;DHT22;34807;51.456;7.244;2023-06-14T04:33:35;19.00;63.10
48998;DHT22;34807;51.456;7.244;2023-06-14T04:36:09;19.00;63.10
48998;DHT22;34807;51.456;7.244;2023-06-14T04:38:34;18.90;63.00
48998;DHT22;34807;51.456;7.244;2023-06-14T04:41:00;18.90;62.80
48998;DHT22;34807;51.456;7.244;2023-06-14T04:43:27;18.90;62.80
48998;DHT22;34807;51.456;7.244;2023-06-14T04:45:53;18.90;63.00
48998;DHT22;34807;51.456;7.244;2023-06-14T04:48:20;18.90;62.90
48998;DHT22;34807;51.456;7.244;2023-06-14T04:50:46;18.90;63.10
48998;DHT22;34807;51.456;7.244;2023-06-14T04:53:11;18.90;63.10
48998;DHT22;34807;51.456;7.244;2023-06-14T04:55:37;18.90;62.80
48998;DHT22;34807;51.456;7.244;2023-06-14T04:58:02;18.90;62.80
48998;DHT22;34807;51.456;7.244;2023-06-14T05:00:28;18.90;62.90
48998;DHT22;34807;51.456;7.244;2023-06-14T05:02:54;18.90;62.90
48998;DHT22;34807;51.456;7.244;2023-06-14T05:05:20;18.90;63.00
48998;DHT22;34807;51.456;7.244;2023-06-14T05:07:46;18.90;62.80
48998;DHT22;34807;51.456;7.244;2023-06-14T05:10:11;18.90;62.80
48998;DHT22;34807;51.456;7.244;2023-06-14T05:12:37;18.90;62.90
48998;DHT22;34807;51.456;7.244;2023-06-14T05:15:02;18.90;62.90
48998;DHT22;34807;51.456;7.244;2023-06-14T05:17:28;18.90;63.00
48998;DHT22;34807;51.456;7.244;2023-06-14T05:19:54;18.90;62.80
48998;DHT22;34807;51.456;7.244;2023-06-14T05:22:21;18.90;62.80
48998;DHT22;34807;51.456;7.244;2023-06-14T05:24:47;18.90;62.70
48998;DHT22;34807;51.456;7.244;2023-06-14T05:27:13;18.80;62.80
48998;DHT22;34807;51.456;7.244;2023-06-14T05:29:39;18.90;62.80
48998;DHT22;34807;51.456;7.244;2023-06-14T05:32:05;18.80;62.70
48998;DHT22;34807;51.456;7.244;2023-06-14T05:34:31;18.80;62.90
48998;DHT22;34807;51.456;7.244;2023-06-14T05:36:56;18.80;62.80
48998;DHT22;34807;51.456;7.244;2023-06-14T05:39:22;18.80;62.80
48998;DHT22;34807;51.456;7.244;2023-06-14T05:41:49;18.80;62.80
48998;DHT22;34807;51.456;7.244;2023-06-14T05:44:14;18.80;62.80
48998;DHT22;34807;51.456;7.244;2023-06-14T05:46:40;18.80;62.80
48998;DHT22;34807;51.456;7.244;2023-06-14T05:49:06;18.90;63.50
48998;DHT22;34807;51.456;7.244;2023-06-14T05:51:32;18.80;62.70
48998;DHT22;34807;51.456;7.244;2023-06-14T05:53:57;18.80;62.90
48998;DHT22;34807;51.456;7.244;2023-06-14T05:56:23;18.90;62.80
48998;DHT22;34807;51.456;7.244;2023-06-14T05:58:49;18.80;62.60
48998;DHT22;34807;51.456;7.244;2023-06-14T06:01:14;18.80;62.80
48998;DHT22;34807;51.456;7.244;2023-06-14T06:03:41;18.90;62.80
48998;DHT22;34807;51.456;7.244;2023-06-14T06:06:11;18.90;62.70
48998;DHT22;34807;51.456;7.244;2023-06-14T06:08:36;18.90;62.70
48998;DHT22;34807;51.456;7.244;2023-06-14T06:11:02;18.90;62.80
48998;DHT22;34807;51.456;7.244;2023-06-14T06:13:28;18.90;62.80
48998;DHT22;34807;51.456;7.244;2023-06-14T06:15:53;18.90;62.70
48998;DHT22;34807;51.456;7.244;2023-06-14T06:18:18;18.90;62.60
48998;DHT22;34807;51.456;7.244;2023-06-14T06:20:44;18.90;62.70
48998;DHT22;34807;51.456;7.244;2023-06-14T06:23:12;18.90;62.70
48998;DHT22;34807;51.456;7.244;2023-06-14T06:25:38;18.90;62.70
48998;DHT22;34807;51.456;7.244;2023-06-14T06:28:03;18.90;62.60
48998;DHT22;34807;51.456;7.244;2023-06-14T06:30:29;18.90;62.70
48998;DHT22;34807;51.456;7.244;2023-06-14T06:32:54;18.90;62.70
48998;DHT22;34807;51.456;7.244;2023-06-14T06:35:21;18.90;62.70
48998;DHT22;34807;51.456;7.244;2023-06-14T06:37:46;18.90;62.70
48998;DHT22;34807;51.456;7.244;2023-06-14T06:40:12;18.90;62.70
48998;DHT22;34807;51.456;7.244;2023-06-14T06:42:37;18.90;62.60
48998;DHT22;34807;51.456;7.244;2023-06-14T06:45:03;19.00;62.70
48998;DHT22;34807;51.456;7.244;2023-06-14T06:47:29;19.00;62.60
48998;DHT22;34807;51.456;7.244;2023-06-14T06:49:54;19.00;62.60
48998;DHT22;34807;51.456;7.244;2023-06-14T06:52:20;19.00;62.60
48998;DHT22;34807;51.456;7.244;2023-06-14T06:54:45;19.00;62.50
48998;DHT22;34807;51.456;7.244;2023-06-14T06:57:11;19.00;62.50
48998;DHT22;34807;51.456;7.244;2023-06-14T06:59:37;19.00;62.50
48998;DHT22;34807;51.456;7.244;2023-06-14T07:02:03;19.00;62.40
48998;DHT22;34807;51.456;7.244;2023-06-14T07:04:28;19.00;62.40
48998;DHT22;34807;51.456;7.244;2023-06-14T07:06:54;19.00;62.40
48998;DHT22;34807;51.456;7.244;2023-06-14T07:09:20;19.10;62.30
48998;DHT22;34807;51.456;7.244;2023-06-14T07:11:46;19.10;62.40
48998;DHT22;34807;51.456;7.244;2023-06-14T07:14:12;19.10;62.50
48998;DHT22;34807;51.456;7.244;2023-06-14T07:16:38;19.10;62.40
48998;DHT22;34807;51.456;7.244;2023-06-14T07:19:03;19.10;62.40
48998;DHT22;34807;51.456;7.244;2023-06-14T07:21:29;19.10;62.40
48998;DHT22;34807;51.456;7.244;2023-06-14T07:23:55;19.10;62.40
48998;DHT22;34807;51.456;7.244;2023-06-14T07:26:21;19.10;62.40
48998;DHT22;34807;51.456;7.244;2023-06-14T07:28:47;19.20;62.20
48998;DHT22;34807;51.456;7.244;2023-06-14T07:31:13;19.10;62.20
48998;DHT22;34807;51.456;7.244;2023-06-14T07:33:38;19.20;62.40
48998;DHT22;34807;51.456;7.244;2023-06-14T07:36:04;19.20;62.20
48998;DHT22;34807;51.456;7.244;2023-06-14T07:38:29;19.20;62.00
48998;DHT22;34807;51.456;7.244;2023-06-14T07:40:55;19.20;62.20
48998;DHT22;34807;51.456;7.244;2023-06-14T07:43:21;19.30;61.90
48998;DHT22;34807;51.456;7.244;2023-06-14T07:45:46;19.30;62.10
48998;DHT22;34807;51.456;7.244;2023-06-14T07:48:12;19.30;62.00
48998;DHT22;34807;51.456;7.244;2023-06-14T07:50:37;19.30;61.90
48998;DHT22;34807;51.456;7.244;2023-06-14T07:53:03;19.30;61.90
48998;DHT22;34807;51.456;7.244;2023-06-14T07:55:28;19.40;61.80
48998;DHT22;34807;51.456;7.244;2023-06-14T07:57:54;19.40;61.60
48998;DHT22;34807;51.456;7.244;2023-06-14T08:00:19;19.40;61.70
48998;DHT22;34807;51.456;7.244;2023-06-14T08:02:45;19.40;61.90
48998;DHT22;34807;51.456;7.244;2023-06-14T08:05:11;19.40;61.60
48998;DHT22;34807;51.456;7.244;2023-06-14T08:07:37;19.40;61.80
48998;DHT22;34807;51.456;7.244;2023-06-14T08:10:03;19.40;61.70
48998;DHT22;34807;51.456;7.244;2023-06-14T08:12:29;19.40;61.70
48998;DHT22;34807;51.456;7.244;2023-06-14T08:14:54;19.40;61.60
48998;DHT22;34807;51.456;7.244;2023-06-14T08:17:20;19.50;61.70
48998;DHT22;34807;51.456;7.244;2023-06-14T08:19:45;19.50;61.40
48998;DHT22;34807;51.456;7.244;2023-06-14T08:22:11;19.50;61.50
48998;DHT22;34807;51.456;7.244;2023-06-14T08:24:37;19.50;61.60
48998;DHT22;34807;51.456;7.244;2023-06-14T08:27:05;19.50;61.40
48998;DHT22;34807;51.456;7.244;2023-06-14T08:29:31;19.60;60.90
48998;DHT22;34807;51.456;7.244;2023-06-14T08:31:56;19.60;61.30
48998;DHT22;34807;51.456;7.244;2023-06-14T08:34:22;19.60;61.20
48998;DHT22;34807;51.456;7.244;2023-06-14T08:36:51;19.60;61.30
48998;DHT22;34807;51.456;7.244;2023-06-14T08:39:17;19.60;61.00
48998;DHT22;34807;51.456;7.244;2023-06-14T08:41:43;19.60;61.10
48998;DHT22;34807;51.456;7.244;2023-06-14T08:44:11;19.60;60.90
48998;DHT22;34807;51.456;7.244;2023-06-14T08:46:37;19.70;61.30
48998;DHT22;34807;51.456;7.244;2023-06-14T08:49:02;19.70;61.10
48998;DHT22;34807;51.456;7.244;2023-06-14T08:51:31;19.70;61.00
48998;DHT22;34807;51.456;7.244;2023-06-14T08:53:59;19.70;61.10
48998;DHT22;34807;51.456;7.244;2023-06-14T08:56:27;19.70;60.60
48998;DHT22;34807;51.456;7.244;2023-06-14T08:58:54;19.70;60.40
48998;DHT22;34807;51.456;7.244;2023-06-14T09:01:21;19.80;60.30
48998;DHT22;34807;51.456;7.244;2023-06-14T09:03:48;19.80;60.90
48998;DHT22;34807;51.456;7.244;2023-06-14T09:06:14;19.80;60.80
48998;DHT22;34807;51.456;7.244;2023-06-14T09:08:44;19.90;60.80
48998;DHT22;34807;51.456;7.244;2023-06-14T09:11:10;19.90;60.70
48998;DHT22;34807;51.456;7.244;2023-06-14T09:13:36;19.90;60.60
48998;DHT22;34807;51.456;7.244;2023-06-14T09:16:02;19.90;60.70
48998;DHT22;34807;51.456;7.244;2023-06-14T09:18:41;20.00;60.50
48998;DHT22;34807;51.456;7.244;2023-06-14T09:21:09;20.00;60.30
48998;DHT22;34807;51.456;7.244;2023-06-14T09:23:41;20.00;60.10
48998;DHT22;34807;51.456;7.244;2023-06-14T09:26:07;20.00;60.40
48998;DHT22;34807;51.456;7.244;2023-06-14T09:28:33;20.00;60.80
48998;DHT22;34807;51.456;7.244;2023-06-14T09:30:59;20.10;60.30
48998;DHT22;34807;51.456;7.244;2023-06-14T09:33:25;20.10;60.30
48998;DHT22;34807;51.456;7.244;2023-06-14T09:35:52;20.20;60.30
48998;DHT22;34807;51.456;7.244;2023-06-14T09:38:18;20.20;60.10
48998;DHT22;34807;51.456;7.244;2023-06-14T09:40:43;20.30;59.90
48998;DHT22;34807;51.456;7.244;2023-06-14T09:43:09;20.30;59.50
48998;DHT22;34807;51.456;7.244;2023-06-14T09:45:35;20.30;59.90
48998;DHT22;34807;51.456;7.244;2023-06-14T09:48:00;20.30;59.50
48998;DHT22;34807;51.456;7.244;2023-06-14T09:50:26;20.40;59.50
48998;DHT22;34807;51.456;7.244;2023-06-14T09:52:52;20.40;59.00
48998;DHT22;34807;51.456;7.244;2023-06-14T09:55:18;20.40;59.80
48998;DHT22;34807;51.456;7.244;2023-06-14T09:57:44;20.50;59.30
48998;DHT22;34807;51.456;7.244;2023-06-14T10:00:11;20.60;59.30
48998;DHT22;34807;51.456;7.244;2023-06-14T10:02:38;20.60;59.20
48998;DHT22;34807;51.456;7.244;2023-06-14T10:07:35;20.70;59.10
48998;DHT22;34807;51.456;7.244;2023-06-14T10:10:02;20.70;59.40
48998;DHT22;34807;51.456;7.244;2023-06-14T10:12:28;20.80;59.20
48998;DHT22;34807;51.456;7.244;2023-06-14T10:14:54;20.90;59.30
48998;DHT22;34807;51.456;7.244;2023-06-14T10:17:23;20.90;59.70
48998;DHT22;34807;51.456;7.244;2023-06-14T10:19:51;21.00;59.20
48998;DHT22;34807;51.456;7.244;2023-06-14T10:22:22;21.10;59.00
48998;DHT22;34807;51.456;7.244;2023-06-14T10:24:50;21.10;58.80
48998;DHT22;34807;51.456;7.244;2023-06-14T10:27:15;21.10;59.10
48998;DHT22;34807;51.456;7.244;2023-06-14T10:32:26;21.30;59.10
48998;DHT22;34807;51.456;7.244;2023-06-14T10:34:57;21.30;58.90
48998;DHT22;34807;51.456;7.244;2023-06-14T10:37:22;21.40;59.00
48998;DHT22;34807;51.456;7.244;2023-06-14T10:39:49;21.50;58.60
48998;DHT22;34807;51.456;7.244;2023-06-14T10:42:15;21.50;59.10
48998;DHT22;34807;51.456;7.244;2023-06-14T10:47:10;21.70;58.90
48998;DHT22;34807;51.456;7.244;2023-06-14T10:50:22;21.80;59.20
48998;DHT22;34807;51.456;7.244;2023-06-14T10:52:26;21.90;59.20
48998;DHT22;34807;51.456;7.244;2023-06-14T10:55:06;22.00;59.00
48998;DHT22;34807;51.456;7.244;2023-06-14T10:57:34;22.10;59.00
48998;DHT22;34807;51.456;7.244;2023-06-14T11:00:00;22.20;59.00
48998;DHT22;34807;51.456;7.244;2023-06-14T11:05:05;22.40;58.90
48998;DHT22;34807;51.456;7.244;2023-06-14T11:12:50;22.80;58.90
48998;DHT22;34807;51.456;7.244;2023-06-14T11:15:17;22.80;58.90
48998;DHT22;34807;51.456;7.244;2023-06-14T11:17:51;22.90;58.40
48998;DHT22;34807;51.456;7.244;2023-06-14T11:20:23;23.00;58.80
48998;DHT22;34807;51.456;7.244;2023-06-14T11:22:50;23.20;58.80
48998;DHT22;34807;51.456;7.244;2023-06-14T11:25:15;23.30;58.70
48998;DHT22;34807;51.456;7.244;2023-06-14T11:27:41;23.30;58.90
48998;DHT22;34807;51.456;7.244;2023-06-14T11:30:07;23.40;58.90
48998;DHT22;34807;51.456;7.244;2023-06-14T11:32:34;23.50;58.90
48998;DHT22;34807;51.456;7.244;2023-06-14T11:35:00;23.60;58.90
48998;DHT22;34807;51.456;7.244;2023-06-14T11:37:26;23.70;58.90
48998;DHT22;34807;51.456;7.244;2023-06-14T11:39:57;23.70;59.00
48998;DHT22;34807;51.456;7.244;2023-06-14T11:42:23;23.80;58.90
48998;DHT22;34807;51.456;7.244;2023-06-14T11:44:49;23.90;58.90
48998;DHT22;34807;51.456;7.244;2023-06-14T11:47:14;24.00;58.00
48998;DHT22;34807;51.456;7.244;2023-06-14T11:49:40;24.10;58.80
48998;DHT22;34807;51.456;7.244;2023-06-14T11:52:07;24.20;58.80
48998;DHT22;34807;51.456;7.244;2023-06-14T11:54:32;24.20;58.80
48998;DHT22;34807;51.456;7.244;2023-06-14T11:56:58;24.30;58.70
48998;DHT22;34807;51.456;7.244;2023-06-14T11:59:24;24.40;58.90
48998;DHT22;34807;51.456;7.244;2023-06-14T12:01:50;24.50;59.00
48998;DHT22;34807;51.456;7.244;2023-06-14T12:04:23;24.50;58.90
48998;DHT22;34807;51.456;7.244;2023-06-14T12:06:48;24.60;58.40
48998;DHT22;34807;51.456;7.244;2023-06-14T12:09:14;24.70;58.90
48998;DHT22;34807;51.456;7.244;2023-06-14T12:11:43;24.70;58.10
48998;DHT22;34807;51.456;7.244;2023-06-14T12:14:09;24.80;57.60
48998;DHT22;34807;51.456;7.244;2023-06-14T12:16:36;24.80;58.40
48998;DHT22;34807;51.456;7.244;2023-06-14T12:19:15;24.90;57.50
48998;DHT22;34807;51.456;7.244;2023-06-14T12:21:41;25.00;57.70
48998;DHT22;34807;51.456;7.244;2023-06-14T12:24:07;25.00;58.30
48998;DHT22;34807;51.456;7.244;2023-06-14T12:26:33;25.10;58.70
48998;DHT22;34807;51.456;7.244;2023-06-14T12:28:58;25.20;58.60
48998;DHT22;34807;51.456;7.244;2023-06-14T12:31:24;25.30;58.70
48998;DHT22;34807;51.456;7.244;2023-06-14T12:33:49;25.30;58.50
48998;DHT22;34807;51.456;7.244;2023-06-14T12:36:15;25.30;58.70
48998;DHT22;34807;51.456;7.244;2023-06-14T12:38:41;25.40;58.00
48998;DHT22;34807;51.456;7.244;2023-06-14T12:41:07;25.40;58.70
48998;DHT22;34807;51.456;7.244;2023-06-14T12:43:33;25.50;57.50
48998;DHT22;34807;51.456;7.244;2023-06-14T12:45:59;25.60;58.60
48998;DHT22;34807;51.456;7.244;2023-06-14T12:48:24;25.60;58.60
48998;DHT22;34807;51.456;7.244;2023-06-14T12:50:50;25.60;58.50
48998;DHT22;34807;51.456;7.244;2023-06-14T12:53:15;25.70;58.50
48998;DHT22;34807;51.456;7.244;2023-06-14T12:55:41;25.80;58.70
48998;DHT22;34807;51.456;7.244;2023-06-14T12:58:06;25.80;58.70
48998;DHT22;34807;51.456;7.244;2023-06-14T13:00:32;25.90;58.60
48998;DHT22;34807;51.456;7.244;2023-06-14T13:02:57;25.90;58.70
48998;DHT22;34807;51.456;7.244;2023-06-14T13:05:23;26.00;58.10
48998;DHT22;34807;51.456;7.244;2023-06-14T13:07:49;26.00;58.10
48998;DHT22;34807;51.456;7.244;2023-06-14T13:10:14;26.10;58.40
48998;DHT22;34807;51.456;7.244;2023-06-14T13:12:40;26.20;58.60
48998;DHT22;34807;51.456;7.244;2023-06-14T13:15:06;26.20;58.70
48998;DHT22;34807;51.456;7.244;2023-06-14T13:17:32;26.30;57.60
48998;DHT22;34807;51.456;7.244;2023-06-14T13:19:58;26.30;58.30
48998;DHT22;34807;51.456;7.244;2023-06-14T13:22:24;26.40;58.30
48998;DHT22;34807;51.456;7.244;2023-06-14T13:24:50;26.40;58.40
48998;DHT22;34807;51.456;7.244;2023-06-14T13:27:15;26.50;57.40
48998;DHT22;34807;51.456;7.244;2023-06-14T13:29:41;26.50;59.00
48998;DHT22;34807;51.456;7.244;2023-06-14T13:32:06;26.60;57.10
48998;DHT22;34807;51.456;7.244;2023-06-14T13:34:32;26.60;56.60
48998;DHT22;34807;51.456;7.244;2023-06-14T13:36:58;26.70;57.40
48998;DHT22;34807;51.456;7.244;2023-06-14T13:39:25;26.80;57.00
48998;DHT22;34807;51.456;7.244;2023-06-14T13:41:50;26.80;57.80
48998;DHT22;34807;51.456;7.244;2023-06-14T13:44:16;26.90;57.20
48998;DHT22;34807;51.456;7.244;2023-06-14T13:46:44;26.90;56.80
48998;DHT22;34807;51.456;7.244;2023-06-14T13:49:10;27.00;57.70
48998;DHT22;34807;51.456;7.244;2023-06-14T13:51:35;26.90;57.20
48998;DHT22;34807;51.456;7.244;2023-06-14T13:54:01;27.00;57.50
48998;DHT22;34807;51.456;7.244;2023-06-14T13:56:27;27.00;56.80
48998;DHT22;34807;51.456;7.244;2023-06-14T13:58:52;27.10;57.40
48998;DHT22;34807;51.456;7.244;2023-06-14T14:01:18;27.10;57.30
48998;DHT22;34807;51.456;7.244;2023-06-14T14:03:45;27.20;57.60
48998;DHT22;34807;51.456;7.244;2023-06-14T14:06:11;27.20;57.60
48998;DHT22;34807;51.456;7.244;2023-06-14T14:08:37;27.20;58.00
48998;DHT22;34807;51.456;7.244;2023-06-14T14:11:03;27.20;55.50
48998;DHT22;34807;51.456;7.244;2023-06-14T14:13:28;27.30;56.00
48998;DHT22;34807;51.456;7.244;2023-06-14T14:15:54;27.40;55.60
48998;DHT22;34807;51.456;7.244;2023-06-14T14:18:20;27.40;56.50
48998;DHT22;34807;51.456;7.244;2023-06-14T14:20:48;27.50;57.10
48998;DHT22;34807;51.456;7.244;2023-06-14T14:23:14;27.50;56.80
48998;DHT22;34807;51.456;7.244;2023-06-14T14:25:40;27.60;56.60
48998;DHT22;34807;51.456;7.244;2023-06-14T14:28:06;27.60;56.70
48998;DHT22;34807;51.456;7.244;2023-06-14T14:30:31;27.70;56.30
48998;DHT22;34807;51.456;7.244;2023-06-14T14:32:58;27.70;57.00
48998;DHT22;34807;51.456;7.244;2023-06-14T14:35:23;27.80;55.50
48998;DHT22;34807;51.456;7.244;2023-06-14T14:37:51;27.90;54.90
48998;DHT22;34807;51.456;7.244;2023-06-14T14:40:16;27.90;54.10
48998;DHT22;34807;51.456;7.244;2023-06-14T14:42:42;28.00;55.10
48998;DHT22;34807;51.456;7.244;2023-06-14T14:45:07;28.10;55.40
48998;DHT22;34807;51.456;7.244;2023-06-14T14:47:33;28.20;54.80
48998;DHT22;34807;51.456;7.244;2023-06-14T14:49:59;28.20;54.50
48998;DHT22;34807;51.456;7.244;2023-06-14T14:52:24;28.20;54.10
48998;DHT22;34807;51.456;7.244;2023-06-14T14:54:51;28.30;54.30
48998;DHT22;34807;51.456;7.244;2023-06-14T14:57:18;28.40;54.00
48998;DHT22;34807;51.456;7.244;2023-06-14T14:59:43;28.60;53.80
48998;DHT22;34807;51.456;7.244;2023-06-14T15:02:09;28.80;52.90
48998;DHT22;34807;51.456;7.244;2023-06-14T15:04:35;29.00;53.20
48998;DHT22;34807;51.456;7.244;2023-06-14T15:07:01;29.20;53.10
48998;DHT22;34807;51.456;7.244;2023-06-14T15:09:26;29.30;52.80
48998;DHT22;34807;51.456;7.244;2023-06-14T15:11:52;29.60;52.60
48998;DHT22;34807;51.456;7.244;2023-06-14T15:14:17;29.60;52.30
48998;DHT22;34807;51.456;7.244;2023-06-14T15:16:42;29.80;52.30
48998;DHT22;34807;51.456;7.244;2023-06-14T15:19:08;29.80;52.30
48998;DHT22;34807;51.456;7.244;2023-06-14T15:21:33;29.80;52.40
48998;DHT22;34807;51.456;7.244;2023-06-14T15:24:00;29.80;52.30
48998;DHT22;34807;51.456;7.244;2023-06-14T15:26:26;30.10;52.40
48998;DHT22;34807;51.456;7.244;2023-06-14T15:28:52;30.30;51.90
48998;DHT22;34807;51.456;7.244;2023-06-14T15:31:18;30.50;51.70
48998;DHT22;34807;51.456;7.244;2023-06-14T15:33:43;30.70;51.50
48998;DHT22;34807;51.456;7.244;2023-06-14T15:36:09;30.90;51.30
48998;DHT22;34807;51.456;7.244;2023-06-14T15:38:35;31.00;51.00
48998;DHT22;34807;51.456;7.244;2023-06-14T15:41:01;31.20;51.00
48998;DHT22;34807;51.456;7.244;2023-06-14T15:43:26;31.30;51.10